Time;durP1;ratioP1;P1;durP2;ratioP2;P2;SDS_P1;SDS_P2;PMS_P1;PMS_P2;Temp;Humidity;BMP_temperature;BMP_pressure;BME280_temperature;BME280_humidity;BME280_pressure;Samples;Min_cycle;Max_cycle;Signal;HPM_P1;HPM_P2
2022/05/11 00:01:30;;;;;;;8.47;6.07;;;24.20;54.70;;;;;;5007162;28;20442;-88
2022/05/11 00:03:57;;;;;;;9.30;5.93;;;24.20;54.70;;;;;;5004572;28;20456;-88
2022/05/11 00:06:27;;;;;;;7.90;5.97;;;24.30;54.80;;;;;;5013295;28;20426;-88
2022/05/11 00:08:54;;;;;;;8.87;6.13;;;24.30;54.80;;;;;;5004616;28;20459;-88
2022/05/11 00:11:21;;;;;;;8.07;6.73;;;24.30;54.80;;;;;;5002134;28;20441;-88
2022/05/11 00:13:47;;;;;;;8.07;5.60;;;24.20;54.70;;;;;;5002224;28;20424;-87
2022/05/11 00:16:16;;;;;;;7.37;6.27;;;24.30;54.80;;;;;;5004718;28;20450;-87
2022/05/11 00:18:42;;;;;;;7.57;6.70;;;24.30;54.80;;;;;;5001815;28;20188;-88
2022/05/11 00:21:09;;;;;;;6.80;5.70;;;24.20;54.70;;;;;;5004783;28;20416;-87
2022/05/11 00:23:37;;;;;;;7.10;6.00;;;24.30;54.80;;;;;;5001572;28;20417;-88
2022/05/11 00:26:03;;;;;;;7.07;6.17;;;24.20;54.70;;;;;;5002565;28;20500;-87
2022/05/11 00:28:29;;;;;;;6.13;4.70;;;24.20;54.70;;;;;;5005531;28;20827;-88
2022/05/11 00:30:56;;;;;;;8.27;6.33;;;24.30;54.70;;;;;;5002050;28;20425;-87
2022/05/11 00:33:22;;;;;;;7.13;6.20;;;24.20;54.70;;;;;;5005452;28;20185;-87
2022/05/11 00:35:50;;;;;;;7.70;5.67;;;24.30;54.70;;;;;;5005316;28;20436;-87
2022/05/11 00:38:18;;;;;;;6.83;6.13;;;24.30;54.70;;;;;;5004481;28;21253;-88
2022/05/11 00:40:51;;;;;;;5.90;5.30;;;24.20;54.70;;;;;;5004107;28;20502;-87
2022/05/11 00:43:34;;;;;;;8.13;5.50;;;24.30;54.80;;;;;;5004655;28;20462;-88
2022/05/11 00:46:42;;;;;;;8.33;5.90;;;24.30;54.70;;;;;;5004813;28;20420;-87
2022/05/11 00:49:35;;;;;;;6.63;5.00;;;24.20;54.70;;;;;;5011332;28;20468;-88
2022/05/11 00:52:35;;;;;;;7.87;5.00;;;24.20;54.70;;;;;;5003485;28;20417;-87
2022/05/11 00:55:08;;;;;;;8.27;6.27;;;24.20;54.70;;;;;;5003101;28;20432;-87
2022/05/11 00:58:07;;;;;;;6.00;5.37;;;24.20;54.70;;;;;;5005812;28;20425;-87
2022/05/11 01:00:34;;;;;;;7.07;5.90;;;24.20;54.70;;;;;;5006609;28;20456;-87
2022/05/11 01:03:24;;;;;;;8.07;5.47;;;24.20;54.80;;;;;;5005078;28;20441;-87
2022/05/11 01:05:50;;;;;;;8.63;6.33;;;24.20;54.70;;;;;;5004361;28;20456;-87
2022/05/11 01:08:18;;;;;;;6.00;5.10;;;24.20;54.70;;;;;;5005395;28;20431;-88
2022/05/11 01:10:46;;;;;;;7.07;5.33;;;24.20;54.80;;;;;;5005712;28;20511;-87
2022/05/11 01:13:14;;;;;;;6.63;5.90;;;24.20;54.70;;;;;;5004994;28;20420;-87
2022/05/11 01:15:42;;;;;;;8.13;6.40;;;24.20;54.70;;;;;;5004770;28;20974;-87
2022/05/11 01:18:09;;;;;;;7.20;5.50;;;24.20;54.70;;;;;;5005096;28;20428;-86
2022/05/11 01:20:37;;;;;;;6.70;5.97;;;24.20;54.70;;;;;;5006496;28;20528;-86
2022/05/11 01:23:33;;;;;;;7.43;5.80;;;24.20;54.70;;;;;;5005484;28;20895;-88
2022/05/11 01:26:02;;;;;;;7.27;5.10;;;24.30;54.80;;;;;;5004849;28;20440;-88
2022/05/11 01:28:28;;;;;;;6.60;5.60;;;24.20;54.70;;;;;;5005398;28;20424;-88
2022/05/11 01:31:03;;;;;;;6.30;5.53;;;24.20;54.70;;;;;;5006426;28;20522;-88
2022/05/11 01:33:29;;;;;;;6.60;5.60;;;24.20;54.70;;;;;;5004241;28;20188;-88
2022/05/11 01:36:14;;;;;;;6.57;4.60;;;24.20;54.70;;;;;;5004630;28;20458;-88
2022/05/11 01:38:47;;;;;;;6.97;5.23;;;24.20;54.70;;;;;;5005113;28;20435;-88
2022/05/11 01:41:23;;;;;;;6.03;5.13;;;24.20;54.70;;;;;;5005503;28;20420;-88
2022/05/11 01:43:51;;;;;;;6.30;5.33;;;24.20;54.70;;;;;;5005170;28;20435;-88
2022/05/11 01:46:19;;;;;;;8.03;5.90;;;24.20;54.70;;;;;;5003960;28;20456;-88
2022/05/11 01:48:46;;;;;;;6.50;5.63;;;24.20;54.70;;;;;;5001233;28;20469;-88
2022/05/11 01:51:14;;;;;;;6.00;4.77;;;24.20;54.70;;;;;;4986144;28;20428;-88
2022/05/11 01:53:41;;;;;;;6.60;5.60;;;24.20;54.70;;;;;;4997214;28;20432;-88
2022/05/11 01:56:08;;;;;;;6.20;5.20;;;24.20;54.70;;;;;;5004742;28;20455;-88
2022/05/11 01:58:35;;;;;;;5.50;5.00;;;24.20;54.70;;;;;;5003869;28;20515;-89
2022/05/11 02:01:02;;;;;;;6.97;6.27;;;24.20;54.70;;;;;;5004307;28;20471;-88
2022/05/11 02:03:27;;;;;;;7.80;5.80;;;24.20;54.70;;;;;;5000218;28;20465;-89
2022/05/11 02:08:41;;;;;;;5.83;5.10;;;24.20;54.70;;;;;;5005341;28;20196;-89
2022/05/11 02:11:07;;;;;;;6.53;5.60;;;24.20;54.70;;;;;;5003315;28;20433;-89
2022/05/11 02:13:33;;;;;;;5.30;4.80;;;24.20;54.70;;;;;;5003786;28;20432;-89
2022/05/11 02:16:00;;;;;;;7.27;5.57;;;24.20;54.70;;;;;;5003666;28;20420;-88
2022/05/11 02:18:25;;;;;;;5.80;5.13;;;24.20;54.70;;;;;;5003579;28;20937;-89
2022/05/11 02:20:51;;;;;;;6.33;5.40;;;24.30;54.70;;;;;;5003768;28;20464;-89
2022/05/11 02:23:19;;;;;;;5.90;5.07;;;24.20;54.60;;;;;;5004827;28;20177;-89
2022/05/11 02:25:48;;;;;;;6.10;5.00;;;24.30;54.70;;;;;;5011782;28;20191;-88
2022/05/11 02:28:19;;;;;;;5.93;5.23;;;24.20;54.60;;;;;;5004535;28;20863;-88
2022/05/11 02:30:45;;;;;;;6.80;6.10;;;24.20;54.60;;;;;;5004975;28;20401;-89
2022/05/11 02:33:13;;;;;;;5.40;4.53;;;24.30;54.70;;;;;;5003759;28;20432;-88
2022/05/11 02:35:39;;;;;;;7.27;5.47;;;24.20;54.70;;;;;;5003153;28;20424;-89
2022/05/11 02:38:09;;;;;;;6.80;5.23;;;24.20;54.60;;;;;;5006205;28;20412;-89
2022/05/11 02:40:36;;;;;;;5.10;4.57;;;24.30;54.70;;;;;;5007347;28;20531;-89
2022/05/11 02:43:03;;;;;;;6.73;5.00;;;24.30;54.70;;;;;;5007663;28;20490;-89
2022/05/11 02:45:32;;;;;;;6.47;4.97;;;24.30;54.70;;;;;;4990758;28;20491;-89
2022/05/11 02:48:00;;;;;;;6.83;5.33;;;24.20;54.60;;;;;;5015369;28;20442;-88
2022/05/11 02:50:30;;;;;;;5.53;4.87;;;24.20;54.60;;;;;;5003428;28;20424;-89
2022/05/11 02:52:56;;;;;;;7.67;4.87;;;24.20;54.70;;;;;;4987165;28;20509;-89
2022/05/11 02:55:22;;;;;;;4.87;4.20;;;24.20;54.60;;;;;;4987690;28;20420;-89
2022/05/11 02:57:47;;;;;;;5.20;4.50;;;24.20;54.60;;;;;;4987847;28;20445;-89
2022/05/11 03:00:17;;;;;;;6.30;5.20;;;24.20;54.60;;;;;;4993234;28;20490;-88
2022/05/11 03:02:43;;;;;;;6.40;5.47;;;24.20;54.60;;;;;;5021914;28;20177;-89
2022/05/11 03:05:11;;;;;;;6.10;4.90;;;24.20;54.60;;;;;;5022976;28;20419;-89
2022/05/11 03:07:38;;;;;;;5.33;4.70;;;24.20;54.60;;;;;;5006209;28;20495;-89
2022/05/11 03:10:05;;;;;;;6.27;5.10;;;24.30;54.70;;;;;;5006699;28;20420;-89
2022/05/11 03:12:32;;;;;;;5.83;5.00;;;24.30;54.70;;;;;;5021176;28;20428;-89
2022/05/11 03:14:59;;;;;;;5.50;5.00;;;24.30;54.70;;;;;;4986215;28;20790;-89
2022/05/11 03:17:25;;;;;;;5.50;4.57;;;24.30;54.70;;;;;;4987175;28;20417;-89
2022/05/11 03:19:51;;;;;;;6.70;5.10;;;24.30;54.70;;;;;;4986213;28;20539;-89
2022/05/11 03:22:17;;;;;;;5.63;4.50;;;24.30;54.70;;;;;;4987198;28;20766;-89
2022/05/11 03:24:43;;;;;;;5.87;4.33;;;24.30;54.70;;;;;;4994886;28;20815;-88
2022/05/11 03:27:09;;;;;;;7.27;5.80;;;24.30;54.70;;;;;;5005911;28;20424;-88
2022/05/11 03:29:35;;;;;;;5.90;4.80;;;24.30;54.70;;;;;;5004464;28;20181;-89
2022/05/11 03:34:47;;;;;;;5.70;5.00;;;24.30;54.70;;;;;;5006450;28;20422;-88
2022/05/11 03:37:17;;;;;;;6.57;5.40;;;24.30;54.70;;;;;;5004792;28;20420;-88
2022/05/11 03:39:42;;;;;;;6.43;5.20;;;24.30;54.70;;;;;;5006091;28;20459;-88
2022/05/11 03:42:13;;;;;;;4.57;4.13;;;24.30;54.70;;;;;;5007622;28;20424;-88
2022/05/11 03:44:40;;;;;;;5.20;4.70;;;24.30;54.70;;;;;;5005968;28;20513;-88
2022/05/11 03:47:06;;;;;;;4.47;4.07;;;24.30;54.70;;;;;;5005894;28;20412;-88
2022/05/11 03:49:33;;;;;;;6.93;4.40;;;24.30;54.70;;;;;;5005711;28;20898;-88
2022/05/11 03:51:59;;;;;;;6.03;5.33;;;24.30;54.70;;;;;;5006769;28;20436;-89
2022/05/11 03:54:25;;;;;;;5.63;4.93;;;24.30;54.70;;;;;;5007147;28;20447;-88
2022/05/11 04:00:21;;;;;;;5.40;4.53;;;24.30;54.70;;;;;;5002141;28;20234;-88
2022/05/11 04:02:48;;;;;;;6.40;4.53;;;24.30;54.70;;;;;;4998729;28;20458;-89
2022/05/11 04:05:14;;;;;;;6.73;4.90;;;24.30;54.70;;;;;;5006314;28;20429;-88
2022/05/11 04:07:41;;;;;;;5.73;5.00;;;24.30;54.70;;;;;;5007405;28;20409;-88
2022/05/11 04:10:09;;;;;;;6.00;5.40;;;24.30;54.70;;;;;;5007737;28;20416;-88
2022/05/11 04:12:35;;;;;;;6.30;4.97;;;24.20;54.70;;;;;;5006662;28;20914;-88
2022/05/11 04:15:01;;;;;;;5.13;4.53;;;24.30;54.70;;;;;;5006628;28;20446;-88
2022/05/11 04:17:27;;;;;;;5.03;4.47;;;24.30;54.70;;;;;;5005875;28;20444;-89
2022/05/11 04:19:53;;;;;;;6.30;5.07;;;24.30;54.70;;;;;;5005005;28;20563;-88
2022/05/11 04:22:19;;;;;;;5.83;5.13;;;24.30;55.30;;;;;;5004908;28;20735;-89
2022/05/11 04:24:45;;;;;;;5.97;5.37;;;24.30;54.70;;;;;;5005516;28;20181;-88
2022/05/11 04:27:11;;;;;;;5.13;4.43;;;24.30;54.70;;;;;;5004785;28;20173;-88
2022/05/11 04:29:38;;;;;;;5.67;4.70;;;24.30;54.70;;;;;;5008693;28;20173;-88
2022/05/11 04:32:04;;;;;;;4.70;4.30;;;24.30;54.70;;;;;;5006987;28;20420;-88
2022/05/11 04:34:30;;;;;;;5.60;4.27;;;24.30;54.70;;;;;;5008586;28;20779;-84
2022/05/11 04:36:56;;;;;;;6.30;5.10;;;24.30;54.70;;;;;;5009019;28;20416;-87
2022/05/11 04:39:22;;;;;;;5.23;4.33;;;24.30;54.70;;;;;;5008055;28;20451;-87
2022/05/11 04:41:48;;;;;;;6.20;4.90;;;24.30;54.70;;;;;;5006676;28;20447;-89
2022/05/11 04:44:14;;;;;;;6.07;4.87;;;24.30;54.70;;;;;;5006349;28;20263;-88
2022/05/11 04:46:40;;;;;;;5.77;4.97;;;24.30;54.70;;;;;;5008876;28;20173;-87
2022/05/11 04:49:23;;;;;;;5.40;4.87;;;24.30;54.70;;;;;;5009369;28;20153;-87
2022/05/11 04:52:02;;;;;;;4.90;4.33;;;24.30;54.70;;;;;;5008105;28;20409;-87
2022/05/11 04:54:28;;;;;;;5.80;4.37;;;24.30;54.70;;;;;;5007626;28;20422;-87
2022/05/11 04:56:54;;;;;;;7.00;4.63;;;24.30;54.70;;;;;;5007781;28;20477;-87
2022/05/11 04:59:21;;;;;;;5.33;4.83;;;24.30;54.70;;;;;;5009324;28;20193;-87
2022/05/11 05:01:47;;;;;;;7.27;4.97;;;24.30;54.70;;;;;;5007819;28;20217;-87
2022/05/11 05:04:15;;;;;;;5.50;4.40;;;24.30;54.70;;;;;;5007467;28;20503;-87
2022/05/11 05:06:41;;;;;;;5.13;4.60;;;24.30;54.70;;;;;;5006042;28;20413;-87
2022/05/11 05:09:07;;;;;;;5.50;5.00;;;24.30;54.70;;;;;;5006538;28;20419;-88
2022/05/11 05:11:33;;;;;;;5.17;4.67;;;24.30;54.70;;;;;;5006819;28;20408;-87
2022/05/11 05:13:59;;;;;;;5.53;4.40;;;24.30;54.70;;;;;;5007814;28;20177;-86
2022/05/11 05:16:26;;;;;;;7.70;4.80;;;24.30;54.70;;;;;;5007504;28;20415;-86
2022/05/11 05:18:51;;;;;;;7.13;5.17;;;24.40;54.80;;;;;;5007988;28;20495;-86
2022/05/11 05:21:18;;;;;;;8.90;4.97;;;24.40;54.80;;;;;;5007536;28;20424;-86
2022/05/11 05:23:44;;;;;;;5.57;4.10;;;24.40;54.80;;;;;;5008671;28;20169;-86
2022/05/11 05:26:09;;;;;;;5.60;4.40;;;24.40;54.80;;;;;;5006749;28;20424;-86
2022/05/11 05:31:23;;;;;;;5.50;4.37;;;24.40;54.80;;;;;;4988471;28;20527;-85
2022/05/11 05:34:04;;;;;;;6.40;4.80;;;24.40;54.80;;;;;;4993394;28;20435;-85
2022/05/11 05:36:39;;;;;;;5.73;4.90;;;24.40;54.80;;;;;;5003871;28;20416;-85
2022/05/11 05:39:07;;;;;;;6.80;4.20;;;24.40;54.80;;;;;;4986171;28;20447;-86
2022/05/11 05:41:33;;;;;;;5.03;4.00;;;24.40;54.80;;;;;;4988099;28;20919;-87
2022/05/11 05:44:04;;;;;;;4.77;4.27;;;24.40;54.80;;;;;;4992117;28;20949;-87
2022/05/11 05:46:31;;;;;;;6.97;5.67;;;24.40;54.80;;;;;;5005990;28;20886;-86
2022/05/11 05:48:58;;;;;;;5.07;4.43;;;24.40;54.80;;;;;;5004915;28;20423;-86
2022/05/11 05:51:25;;;;;;;5.43;4.73;;;24.40;54.80;;;;;;5005503;28;20420;-86
2022/05/11 05:53:51;;;;;;;5.80;4.60;;;24.40;54.80;;;;;;5007613;28;20409;-87
2022/05/11 05:56:17;;;;;;;6.10;4.43;;;24.40;54.80;;;;;;5006661;28;20417;-86
2022/05/11 05:58:46;;;;;;;5.20;4.40;;;24.40;54.80;;;;;;5007497;28;20504;-85
2022/05/11 06:01:16;;;;;;;5.03;4.53;;;24.40;54.80;;;;;;5006625;28;20458;-86
2022/05/11 06:03:44;;;;;;;5.40;4.53;;;24.40;55.30;;;;;;5006462;28;20417;-87
2022/05/11 06:06:11;;;;;;;6.00;4.37;;;24.40;54.80;;;;;;4998721;28;20432;-86
2022/05/11 06:08:37;;;;;;;5.03;4.53;;;24.50;54.80;;;;;;5006420;28;20407;-86
2022/05/11 06:11:05;;;;;;;5.47;4.30;;;24.50;54.80;;;;;;4989634;28;20945;-85
2022/05/11 06:13:30;;;;;;;5.30;4.80;;;24.50;54.80;;;;;;5007712;28;20480;-85
2022/05/11 06:15:56;;;;;;;5.00;4.50;;;24.50;54.80;;;;;;4993065;28;20429;-86
2022/05/11 06:18:24;;;;;;;4.80;4.30;;;24.50;54.80;;;;;;4990607;28;20188;-87
2022/05/11 06:20:51;;;;;;;5.20;4.20;;;24.50;54.80;;;;;;5005342;28;20452;-87
2022/05/11 06:23:20;;;;;;;4.53;4.13;;;24.50;54.80;;;;;;5001548;28;20432;-87
2022/05/11 06:25:50;;;;;;;6.70;4.40;;;24.50;55.10;;;;;;5018438;28;20425;-86
2022/05/11 06:28:18;;;;;;;5.30;4.80;;;24.50;54.80;;;;;;5001594;28;20416;-85
2022/05/11 06:30:44;;;;;;;4.70;4.30;;;24.50;54.80;;;;;;5006100;28;20417;-88
2022/05/11 06:33:09;;;;;;;6.37;5.23;;;24.50;54.90;;;;;;5000301;28;20419;-86
2022/05/11 06:35:37;;;;;;;4.70;4.20;;;24.50;54.80;;;;;;5004396;28;20434;-86
2022/05/11 06:38:10;;;;;;;6.30;4.70;;;24.50;55.30;;;;;;4989782;28;20252;-88
2022/05/11 06:40:37;;;;;;;5.17;4.57;;;24.50;54.80;;;;;;5021985;28;20444;-85
2022/05/11 06:43:04;;;;;;;6.40;4.53;;;24.50;55.10;;;;;;5005532;28;20416;-86
2022/05/11 06:45:31;;;;;;;5.20;4.60;;;24.50;55.40;;;;;;5005395;28;20462;-86
2022/05/11 06:47:57;;;;;;;4.90;4.07;;;24.50;54.80;;;;;;5005816;28;20918;-86
2022/05/11 06:50:26;;;;;;;6.93;4.37;;;24.50;54.80;;;;;;5006356;28;20424;-86
2022/05/11 06:52:53;;;;;;;4.73;4.33;;;24.50;54.80;;;;;;5006786;28;20417;-87
2022/05/11 07:00:49;;;;;;;4.67;4.20;;;24.50;54.80;;;;;;4998099;28;20474;-86
2022/05/11 07:03:16;;;;;;;5.80;5.03;;;24.50;54.80;;;;;;5005898;28;20424;-87
2022/05/11 07:05:47;;;;;;;5.10;4.60;;;24.50;54.80;;;;;;5004737;28;20420;-88
2022/05/11 07:08:13;;;;;;;4.70;4.30;;;24.50;54.80;;;;;;5005531;28;20442;-87
2022/05/11 07:10:42;;;;;;;5.03;4.57;;;24.50;54.80;;;;;;5004347;28;20428;-87
2022/05/11 07:13:09;;;;;;;5.97;4.70;;;24.50;54.80;;;;;;5004658;28;20484;-87
2022/05/11 07:15:35;;;;;;;5.10;4.63;;;24.50;54.80;;;;;;5003524;28;20431;-86
2022/05/11 07:18:04;;;;;;;4.93;4.43;;;24.50;54.80;;;;;;5090268;28;20420;-86
2022/05/11 07:20:36;;;;;;;6.10;5.00;;;24.50;54.80;;;;;;5005251;28;20303;-86
2022/05/11 07:23:05;;;;;;;4.63;4.23;;;24.50;54.80;;;;;;5091035;28;20420;-86
2022/05/11 07:25:32;;;;;;;4.50;4.10;;;24.50;54.80;;;;;;5008729;28;20408;-86
2022/05/11 07:27:59;;;;;;;4.20;3.70;;;24.50;54.80;;;;;;5006782;28;20447;-88
2022/05/11 07:30:34;;;;;;;6.20;4.27;;;24.50;54.80;;;;;;5007614;28;20444;-88
2022/05/11 07:33:01;;;;;;;5.63;4.47;;;24.50;54.80;;;;;;5006132;28;20469;-87
2022/05/11 07:35:28;;;;;;;4.77;4.27;;;24.50;54.80;;;;;;5008589;28;20423;-87
2022/05/11 07:37:54;;;;;;;5.10;4.60;;;24.50;54.80;;;;;;5007958;28;20440;-87
2022/05/11 07:40:23;;;;;;;5.10;4.60;;;24.50;54.80;;;;;;5006688;28;20513;-87
2022/05/11 07:42:49;;;;;;;6.23;4.50;;;24.50;54.80;;;;;;5008075;28;20173;-87
2022/05/11 07:45:16;;;;;;;4.77;4.27;;;24.50;54.80;;;;;;5008235;28;20431;-87
2022/05/11 07:47:43;;;;;;;4.00;3.63;;;24.50;54.80;;;;;;5008520;28;20506;-87
2022/05/11 07:50:13;;;;;;;3.97;3.67;;;24.50;54.80;;;;;;5007348;28;20430;-87
2022/05/11 07:52:39;;;;;;;5.00;4.50;;;24.50;54.80;;;;;;5007293;28;20446;-87
2022/05/11 07:55:06;;;;;;;4.63;4.23;;;24.50;54.80;;;;;;5008447;28;20474;-87
2022/05/11 08:00:16;;;;;;;4.30;3.87;;;24.50;54.80;;;;;;5009336;28;20447;-87
2022/05/11 08:02:42;;;;;;;4.30;3.83;;;24.50;54.80;;;;;;5008947;28;20426;-87
2022/05/11 08:05:16;;;;;;;4.17;3.77;;;24.50;54.80;;;;;;5007553;28;20440;-87
2022/05/11 08:07:52;;;;;;;3.90;3.60;;;24.50;54.80;;;;;;5008503;28;20175;-87
2022/05/11 08:10:24;;;;;;;4.63;4.23;;;24.50;54.80;;;;;;5008283;28;20460;-88
2022/05/11 08:12:52;;;;;;;4.40;3.80;;;24.50;54.90;;;;;;5008494;28;20443;-89
2022/05/11 08:15:21;;;;;;;5.53;4.97;;;24.50;54.90;;;;;;5008279;28;20409;-88
2022/05/11 08:17:49;;;;;;;9.97;4.63;;;24.50;55.40;;;;;;5006115;28;20421;-89
2022/05/11 08:20:23;;;;;;;5.40;4.60;;;24.50;54.90;;;;;;5008314;28;20490;-88
2022/05/11 08:22:51;;;;;;;6.47;4.37;;;24.50;55.00;;;;;;5007243;28;20424;-89
2022/05/11 08:25:20;;;;;;;7.77;4.47;;;24.50;55.00;;;;;;5007889;28;20472;-89
2022/05/11 08:27:47;;;;;;;6.80;4.80;;;24.50;55.00;;;;;;5008230;28;20411;-88
2022/05/11 08:35:44;;;;;;;7.50;4.60;;;24.50;55.10;;;;;;5007607;28;20396;-87
2022/05/11 08:38:11;;;;;;;5.40;4.33;;;24.60;55.20;;;;;;5092310;28;20480;-89
2022/05/11 08:40:37;;;;;;;9.37;5.13;;;24.50;55.10;;;;;;5007763;28;20448;-87
2022/05/11 08:43:05;;;;;;;5.53;4.90;;;24.60;55.30;;;;;;5008100;28;20420;-88
2022/05/11 08:45:52;;;;;;;7.10;4.53;;;24.60;55.30;;;;;;5007452;28;20426;-88
2022/05/11 08:48:34;;;;;;;7.00;4.87;;;24.60;55.30;;;;;;5003256;28;20401;-88
2022/05/11 08:51:02;;;;;;;7.70;4.30;;;24.60;55.20;;;;;;4987961;28;20394;-87
2022/05/11 08:53:41;;;;;;;4.70;4.20;;;24.60;55.30;;;;;;4986917;28;20413;-88
2022/05/11 08:56:15;;;;;;;6.40;4.37;;;24.60;55.20;;;;;;4986896;28;21004;-88
2022/05/11 08:58:48;;;;;;;5.23;4.83;;;24.60;55.20;;;;;;4987177;28;20403;-88
2022/05/11 09:01:22;;;;;;;4.03;3.63;;;24.60;55.20;;;;;;4987367;28;20459;-88
2022/05/11 09:03:55;;;;;;;8.80;4.43;;;24.60;55.20;;;;;;4986808;28;20425;-87
2022/05/11 09:06:27;;;;;;;5.10;4.40;;;24.60;55.20;;;;;;4986539;28;20471;-87
2022/05/11 09:08:54;;;;;;;5.40;4.90;;;24.60;55.20;;;;;;4986663;28;20425;-87
2022/05/11 09:11:49;;;;;;;5.67;4.93;;;24.60;55.20;;;;;;4986754;28;20417;-87
2022/05/11 09:14:24;;;;;;;5.40;4.60;;;24.60;55.20;;;;;;4986058;28;20418;-87
2022/05/11 09:16:51;;;;;;;5.80;4.50;;;24.60;55.20;;;;;;4987263;28;20413;-87
2022/05/11 09:19:29;;;;;;;4.90;4.20;;;24.60;55.20;;;;;;4986643;28;20532;-87
2022/05/11 09:22:23;;;;;;;4.30;3.90;;;24.60;55.20;;;;;;4986518;28;20424;-87
2022/05/11 09:24:56;;;;;;;5.03;3.70;;;24.60;55.20;;;;;;4960789;28;20428;-86
2022/05/11 09:27:24;;;;;;;5.70;4.20;;;24.60;55.20;;;;;;4987334;28;20485;-86
2022/05/11 09:30:01;;;;;;;6.03;4.80;;;24.60;55.20;;;;;;4986748;28;20930;-86
2022/05/11 09:32:42;;;;;;;4.20;3.67;;;24.60;55.20;;;;;;4986710;28;20431;-85
2022/05/11 09:35:37;;;;;;;5.13;4.40;;;24.60;55.20;;;;;;4986302;28;20435;-86
2022/05/11 09:38:18;;;;;;;5.60;5.10;;;24.60;55.10;;;;;;4985775;28;20432;-88
2022/05/11 09:41:08;;;;;;;4.97;4.40;;;24.60;55.20;;;;;;4986076;28;20459;-86
2022/05/11 09:43:43;;;;;;;5.00;4.27;;;24.60;55.20;;;;;;4986813;28;20448;-86
2022/05/11 09:46:28;;;;;;;5.07;4.57;;;24.60;55.20;;;;;;4986825;28;20452;-87
2022/05/11 09:48:57;;;;;;;4.43;3.93;;;24.60;55.20;;;;;;4987028;28;20389;-87
2022/05/11 09:51:56;;;;;;;4.50;4.10;;;24.60;55.20;;;;;;4986452;28;20428;-87
2022/05/11 09:54:48;;;;;;;4.80;4.30;;;24.60;55.20;;;;;;4987373;28;20512;-87
2022/05/11 09:57:28;;;;;;;5.00;4.50;;;24.60;55.20;;;;;;4986732;28;20414;-86
2022/05/11 10:00:17;;;;;;;6.70;4.70;;;24.60;55.20;;;;;;4986492;28;20465;-88
2022/05/11 10:02:51;;;;;;;5.30;4.00;;;24.60;55.20;;;;;;4986457;28;20409;-88
2022/05/11 10:05:26;;;;;;;5.17;4.77;;;24.60;55.20;;;;;;4986091;28;20484;-87
2022/05/11 10:08:23;;;;;;;5.50;3.63;;;24.60;55.20;;;;;;4986661;28;20397;-89
2022/05/11 10:11:06;;;;;;;5.20;4.23;;;24.60;55.20;;;;;;4986023;28;20426;-88
2022/05/11 10:13:37;;;;;;;6.80;4.07;;;24.60;55.70;;;;;;4986265;28;20417;-88
2022/05/11 10:22:22;;;;;;;5.70;4.20;;;24.60;55.80;;;;;;4986159;28;20396;-88
2022/05/11 10:25:12;;;;;;;10.63;5.30;;;24.60;55.20;;;;;;4986320;28;20388;-88
2022/05/11 10:28:03;;;;;;;7.33;4.00;;;24.60;55.20;;;;;;4985512;28;20774;-90
2022/05/11 10:30:54;;;;;;;5.67;4.10;;;24.60;55.20;;;;;;4983179;28;20433;-89
2022/05/11 10:33:44;;;;;;;5.93;4.30;;;24.60;55.20;;;;;;4985177;28;20449;-93
2022/05/11 10:36:38;;;;;;;4.60;3.90;;;24.60;55.20;;;;;;4983976;28;20424;-92
2022/05/11 10:39:29;;;;;;;8.60;4.43;;;24.60;55.20;;;;;;4982875;28;20421;-89
2022/05/11 10:42:26;;;;;;;5.17;3.70;;;24.60;55.20;;;;;;4984182;28;20409;-88
2022/05/11 10:45:14;;;;;;;4.03;3.60;;;24.60;55.20;;;;;;4975882;28;20433;-89
2022/05/11 10:48:08;;;;;;;5.63;3.90;;;24.60;55.20;;;;;;4983649;28;20414;-89
2022/05/11 10:50:40;;;;;;;4.93;4.10;;;24.60;55.20;;;;;;4985550;28;20394;-90
2022/05/11 10:53:34;;;;;;;5.53;4.23;;;24.60;55.20;;;;;;4983411;28;20424;-89
2022/05/11 10:56:18;;;;;;;4.50;3.40;;;24.60;55.20;;;;;;4983206;28;20424;-90
2022/05/11 10:59:25;;;;;;;5.50;4.10;;;24.60;55.20;;;;;;4986441;28;20421;-88
2022/05/11 11:02:10;;;;;;;4.80;3.83;;;24.60;55.30;;;;;;4986411;28;20437;-90
2022/05/11 11:05:20;;;;;;;5.83;4.23;;;24.60;55.30;;;;;;4988022;28;20394;-90
2022/05/11 11:07:58;;;;;;;4.57;3.83;;;24.60;55.20;;;;;;4988139;28;20739;-90
2022/05/11 11:10:28;;;;;;;4.50;4.10;;;24.60;55.30;;;;;;4986244;28;20409;-91
2022/05/11 11:13:13;;;;;;;4.60;3.73;;;24.50;55.20;;;;;;4986189;28;20432;-89
2022/05/11 11:15:44;;;;;;;4.43;3.63;;;24.60;55.30;;;;;;4987036;28;20420;-90
2022/05/11 11:18:19;;;;;;;4.47;4.07;;;24.60;55.20;;;;;;4987047;28;20421;-90
2022/05/11 11:20:47;;;;;;;6.77;3.90;;;24.60;55.20;;;;;;4970701;28;20452;-90
2022/05/11 11:23:28;;;;;;;4.27;3.77;;;24.60;55.20;;;;;;4986902;28;20508;-90
2022/05/11 11:26:23;;;;;;;3.70;3.40;;;24.60;55.20;;;;;;4987536;28;20400;-90
2022/05/11 11:28:55;;;;;;;4.00;3.60;;;24.60;55.20;;;;;;4986826;28;20424;-90
2022/05/11 11:31:23;;;;;;;4.60;3.57;;;24.60;55.20;;;;;;4985930;28;20484;-90
2022/05/11 11:34:22;;;;;;;6.27;3.90;;;24.60;55.20;;;;;;4986674;28;20424;-90
2022/05/11 11:36:52;;;;;;;4.33;3.93;;;24.60;55.20;;;;;;4931496;29;20423;-90
2022/05/11 11:39:52;;;;;;;4.30;3.90;;;24.60;55.20;;;;;;4931181;28;20532;-90
2022/05/11 11:42:46;;;;;;;4.43;3.70;;;24.60;55.20;;;;;;4949874;29;20423;-90
2022/05/11 11:45:39;;;;;;;4.40;4.00;;;24.60;55.20;;;;;;4949542;29;20453;-89
2022/05/11 11:48:21;;;;;;;4.60;4.10;;;24.60;55.20;;;;;;4940906;29;20425;-89
2022/05/11 11:50:49;;;;;;;3.73;3.33;;;24.60;55.20;;;;;;4966982;29;20411;-90
2022/05/11 11:53:38;;;;;;;4.23;3.83;;;24.60;55.20;;;;;;4965706;29;20461;-90
2022/05/11 11:56:25;;;;;;;4.17;3.80;;;24.60;55.20;;;;;;4949697;29;20422;-90
2022/05/11 11:59:09;;;;;;;5.13;4.00;;;24.60;55.20;;;;;;4965587;29;20451;-90
2022/05/11 12:01:46;;;;;;;4.30;3.90;;;24.60;55.20;;;;;;4965693;29;20827;-90
2022/05/11 12:04:27;;;;;;;4.03;3.63;;;24.60;55.20;;;;;;4930201;29;20418;-89
2022/05/11 12:15:33;;;;;;;4.50;3.47;;;24.60;55.30;;;;;;4986250;28;20397;-90
2022/05/11 12:18:00;;;;;;;3.43;3.20;;;24.60;55.30;;;;;;4985676;28;20413;-90
2022/05/11 12:20:39;;;;;;;4.20;3.80;;;24.60;55.30;;;;;;4986703;28;20452;-89
2022/05/11 12:23:17;;;;;;;5.07;3.93;;;24.60;55.20;;;;;;4986092;28;20413;-90
2022/05/11 12:25:58;;;;;;;4.23;3.43;;;24.60;55.20;;;;;;4996128;28;20430;-89
2022/05/11 12:28:31;;;;;;;3.70;3.40;;;24.60;55.20;;;;;;5007194;28;20401;-90
2022/05/11 12:30:57;;;;;;;4.00;3.60;;;24.60;55.20;;;;;;4987070;28;20413;-90
2022/05/11 12:33:29;;;;;;;3.20;2.83;;;24.60;55.20;;;;;;4986712;28;20432;-90
2022/05/11 12:35:55;;;;;;;4.33;3.70;;;24.70;55.30;;;;;;4986372;28;20961;-89
2022/05/11 12:38:39;;;;;;;4.47;4.07;;;24.60;55.20;;;;;;4985043;28;20463;-89
2022/05/11 12:41:18;;;;;;;4.13;3.73;;;24.70;55.30;;;;;;4988029;28;20469;-90
2022/05/11 12:43:59;;;;;;;4.03;3.63;;;24.70;55.30;;;;;;5000374;28;20428;-89
2022/05/11 12:46:26;;;;;;;3.80;3.50;;;24.70;55.30;;;;;;5003599;28;20438;-89
2022/05/11 12:48:53;;;;;;;3.67;3.37;;;24.70;55.30;;;;;;5002833;28;20424;-90
2022/05/11 12:51:31;;;;;;;5.27;4.07;;;24.70;55.30;;;;;;5002482;28;20485;-89
2022/05/11 12:54:00;;;;;;;3.77;3.20;;;24.60;55.20;;;;;;5004107;28;20420;-90
2022/05/11 12:56:35;;;;;;;3.43;3.13;;;24.70;55.30;;;;;;5003726;28;20419;-90
2022/05/11 12:59:16;;;;;;;5.60;3.60;;;24.70;55.30;;;;;;5003080;28;20416;-89
2022/05/11 13:01:41;;;;;;;3.63;3.20;;;24.70;55.30;;;;;;5000356;28;20419;-90
2022/05/11 13:04:18;;;;;;;3.57;3.10;;;24.60;55.20;;;;;;5002993;28;20412;-90
2022/05/11 13:06:46;;;;;;;4.00;3.60;;;24.70;55.30;;;;;;5016368;28;20183;-89
2022/05/11 13:09:24;;;;;;;3.80;3.50;;;24.70;55.30;;;;;;4989844;28;20484;-89
2022/05/11 13:11:51;;;;;;;3.77;3.47;;;24.70;55.30;;;;;;5003205;28;20443;-89
2022/05/11 13:14:22;;;;;;;4.63;3.50;;;24.70;55.30;;;;;;5003649;28;20412;-90
2022/05/11 13:16:54;;;;;;;3.90;3.60;;;24.60;55.30;;;;;;5004285;28;20503;-90
2022/05/11 13:19:23;;;;;;;3.77;3.10;;;24.70;55.30;;;;;;5002226;28;20424;-90
2022/05/11 13:21:50;;;;;;;3.73;3.10;;;24.70;55.30;;;;;;5001492;28;20473;-89
2022/05/11 13:24:45;;;;;;;3.33;3.03;;;24.70;55.30;;;;;;4999648;28;20515;-90
2022/05/11 13:27:37;;;;;;;3.83;3.17;;;24.70;55.30;;;;;;5003719;28;20407;-90
2022/05/11 13:30:32;;;;;;;3.67;3.37;;;24.70;55.30;;;;;;5000871;28;20416;-90
2022/05/11 13:33:04;;;;;;;3.53;3.23;;;24.70;55.30;;;;;;5015382;28;20428;-90
2022/05/11 13:35:38;;;;;;;3.73;3.43;;;24.60;55.30;;;;;;5003234;28;20412;-90
2022/05/11 13:38:10;;;;;;;3.53;2.87;;;24.70;55.40;;;;;;5001566;28;20439;-90
2022/05/11 13:40:54;;;;;;;4.20;3.87;;;24.70;55.40;;;;;;5002116;28;20486;-89
2022/05/11 13:43:33;;;;;;;3.67;3.17;;;24.70;55.40;;;;;;4997567;28;20413;-90
2022/05/11 13:46:06;;;;;;;3.73;3.43;;;24.70;55.40;;;;;;5002047;28;20456;-90
2022/05/11 13:48:44;;;;;;;2.90;2.70;;;24.70;55.30;;;;;;5001316;28;20512;-89
2022/05/11 13:51:29;;;;;;;3.30;3.00;;;24.70;55.30;;;;;;5002455;28;20408;-90
2022/05/11 13:54:18;;;;;;;3.07;2.77;;;24.70;55.30;;;;;;5003111;28;20416;-89
2022/05/11 13:57:01;;;;;;;3.03;2.83;;;24.70;55.30;;;;;;5013686;28;20436;-90